createdAt,value
2019-01-30T00:00:45.805Z,10.75
2019-01-30T00:02:47.457Z,10.63
2019-01-30T00:04:49.452Z,11.75
2019-01-30T00:06:51.412Z,11.63
2019-01-30T00:08:53.096Z,11.25
2019-01-30T00:10:55.016Z,10.82
2019-01-30T00:12:56.981Z,10.60
2019-01-30T00:14:58.642Z,11.63
2019-01-30T00:17:00.593Z,12.07
2019-01-30T00:19:02.261Z,10.85
2019-01-30T00:21:03.922Z,11.63
2019-01-30T00:23:05.563Z,11.22
2019-01-30T00:25:07.248Z,11.35
2019-01-30T00:27:08.904Z,11.35
2019-01-30T00:29:10.561Z,10.93
2019-01-30T00:31:12.221Z,11.60
2019-01-30T00:33:14.437Z,11.08
2019-01-30T00:35:16.085Z,10.98
2019-01-30T00:37:18.028Z,11.38
2019-01-30T00:39:19.700Z,11.28
2019-01-30T00:41:21.344Z,9.95
2019-01-30T00:43:23.001Z,9.95
2019-01-30T00:45:24.660Z,8.80
2019-01-30T00:47:26.316Z,10.85
2019-01-30T00:49:27.969Z,11.10
2019-01-30T00:51:29.616Z,11.48
2019-01-30T00:53:31.552Z,11.33
2019-01-30T00:55:33.210Z,12.18
2019-01-30T00:57:34.869Z,9.75
2019-01-30T00:59:37.028Z,9.90
2019-01-30T01:01:38.693Z,10.15
2019-01-30T01:03:40.342Z,9.40
2019-01-30T01:05:42.112Z,10.05
2019-01-30T01:07:43.765Z,10.95
2019-01-30T01:09:45.993Z,9.10
2019-01-30T01:11:47.651Z,9.20
2019-01-30T01:13:49.406Z,8.93
2019-01-30T01:15:51.073Z,9.58
2019-01-30T01:17:52.834Z,8.60
2019-01-30T01:19:54.489Z,9.23
2019-01-30T01:21:56.158Z,9.20
2019-01-30T01:23:58.065Z,8.83
2019-01-30T01:25:59.729Z,8.68
2019-01-30T01:28:01.381Z,9.28
2019-01-30T01:30:04.682Z,8.70
2019-01-30T01:32:06.346Z,8.35
2019-01-30T01:34:08.014Z,7.87
2019-01-30T01:36:09.921Z,8.80
2019-01-30T01:38:11.589Z,9.55
2019-01-30T01:40:13.857Z,8.80
2019-01-30T01:42:15.805Z,8.18
2019-01-30T01:44:17.454Z,9.23
2019-01-30T01:46:19.119Z,7.87
2019-01-30T01:48:20.774Z,7.65
2019-01-30T01:50:22.425Z,8.80
2019-01-30T01:52:24.090Z,7.78
2019-01-30T01:54:25.762Z,8.03
2019-01-30T01:56:27.421Z,8.55
2019-01-30T01:58:29.070Z,8.73
2019-01-30T02:00:35.568Z,8.05
2019-01-30T02:02:34.375Z,8.30
2019-01-30T02:04:36.311Z,7.05
2019-01-30T02:06:37.967Z,7.85
2019-01-30T02:08:40.031Z,7.75
2019-01-30T02:10:41.994Z,6.75
2019-01-30T02:12:43.666Z,7.12
2019-01-30T02:14:45.311Z,7.30
2019-01-30T02:16:46.973Z,7.08
2019-01-30T02:18:48.626Z,6.80
2019-01-30T02:20:50.267Z,7.25
2019-01-30T02:22:52.200Z,6.30
2019-01-30T02:24:54.165Z,7.25
2019-01-30T02:26:56.112Z,6.87
2019-01-30T02:28:57.756Z,6.78
2019-01-30T02:30:59.433Z,5.97
2019-01-30T02:33:01.101Z,7.45
2019-01-30T02:35:03.146Z,6.70
2019-01-30T02:37:04.801Z,7.30
2019-01-30T02:39:06.457Z,6.62
2019-01-30T02:41:08.121Z,5.80
2019-01-30T02:43:09.777Z,6.62
2019-01-30T02:45:13.469Z,5.83
2019-01-30T02:47:15.228Z,6.55
2019-01-30T02:49:17.208Z,6.30
2019-01-30T02:51:18.852Z,5.67
2019-01-30T02:53:20.521Z,7.15
2019-01-30T02:55:22.425Z,7.08
2019-01-30T02:57:24.094Z,5.80
2019-01-30T02:59:25.745Z,5.37
2019-01-30T03:01:27.677Z,5.85
2019-01-30T03:03:29.341Z,7.03
2019-01-30T03:05:31.001Z,5.97
2019-01-30T03:07:32.655Z,5.53
2019-01-30T03:09:34.320Z,5.78
2019-01-30T03:11:35.969Z,6.15
2019-01-30T03:13:37.968Z,6.25
2019-01-30T03:15:39.597Z,7.35
2019-01-30T03:17:41.267Z,6.60
2019-01-30T03:19:42.906Z,5.65
2019-01-30T03:21:44.558Z,7.10
2019-01-30T03:23:46.211Z,6.35
2019-01-30T03:25:47.878Z,7.17
2019-01-30T03:27:49.549Z,6.85
2019-01-30T03:29:51.201Z,7.35
2019-01-30T03:31:53.175Z,7.00
2019-01-30T03:33:54.828Z,6.90
2019-01-30T03:35:56.489Z,6.30
2019-01-30T03:37:58.473Z,7.05
2019-01-30T03:40:00.175Z,6.90
2019-01-30T03:42:02.145Z,7.00
2019-01-30T03:44:03.810Z,7.20
2019-01-30T03:46:05.453Z,8.08
2019-01-30T03:48:07.417Z,7.40
2019-01-30T03:50:10.718Z,7.55
2019-01-30T03:52:12.356Z,7.25
2019-01-30T03:54:14.025Z,7.50
2019-01-30T03:56:15.677Z,8.18
2019-01-30T03:58:17.617Z,7.50
2019-01-30T04:00:21.256Z,8.30
2019-01-30T04:02:22.978Z,8.00
2019-01-30T04:04:24.641Z,8.18
2019-01-30T04:06:26.283Z,8.38
2019-01-30T04:08:27.956Z,8.30
2019-01-30T04:10:29.623Z,8.20
2019-01-30T04:12:31.269Z,9.43
2019-01-30T04:14:32.958Z,10.05
2019-01-30T04:16:34.692Z,9.75
2019-01-30T04:18:36.458Z,9.53
2019-01-30T04:20:38.428Z,10.20
2019-01-30T04:22:40.071Z,11.43
2019-01-30T04:24:41.796Z,10.32
2019-01-30T04:26:43.489Z,9.85
2019-01-30T04:28:45.143Z,10.70
2019-01-30T04:30:46.784Z,12.07
2019-01-30T04:32:48.428Z,11.00
2019-01-30T04:34:50.129Z,10.90
2019-01-30T04:36:51.784Z,11.05
2019-01-30T04:38:53.431Z,10.48
2019-01-30T04:40:55.088Z,11.85
2019-01-30T04:42:56.736Z,10.48
2019-01-30T04:44:58.395Z,11.53
2019-01-30T04:47:00.077Z,10.75
2019-01-30T04:49:02.078Z,11.38
2019-01-30T04:51:03.733Z,11.25
2019-01-30T04:53:05.689Z,11.73
2019-01-30T04:55:07.353Z,11.33
2019-01-30T04:57:09.005Z,12.47
2019-01-30T04:59:10.694Z,11.93
2019-01-30T05:01:12.347Z,11.63
2019-01-30T05:03:14.214Z,11.43
2019-01-30T05:05:15.894Z,12.10
2019-01-30T05:07:17.867Z,11.48
2019-01-30T05:09:19.525Z,9.73
2019-01-30T05:11:21.193Z,11.45
2019-01-30T05:13:22.841Z,12.00
2019-01-30T05:15:24.505Z,12.85
2019-01-30T05:17:26.166Z,12.18
2019-01-30T05:19:27.821Z,11.00
2019-01-30T05:21:29.482Z,10.88
2019-01-30T05:23:31.132Z,11.57
2019-01-30T05:25:32.797Z,11.00
2019-01-30T05:27:34.442Z,11.08
2019-01-30T05:29:36.080Z,11.95
2019-01-30T05:31:37.746Z,12.63
2019-01-30T05:33:39.393Z,12.13
2019-01-30T05:35:41.050Z,12.28
2019-01-30T05:37:42.697Z,12.28
2019-01-30T05:39:44.458Z,11.45
2019-01-30T05:41:46.114Z,13.53
2019-01-30T05:43:47.773Z,13.22
2019-01-30T05:45:49.421Z,13.10
2019-01-30T05:47:51.338Z,13.68
2019-01-30T05:49:52.993Z,12.70
2019-01-30T05:51:54.665Z,12.23
2019-01-30T05:53:56.570Z,13.72
2019-01-30T05:55:58.219Z,13.58
2019-01-30T05:57:59.881Z,13.20
2019-01-30T06:00:01.533Z,13.18
2019-01-30T06:02:11.917Z,13.28
2019-01-30T06:04:07.076Z,14.78
2019-01-30T06:06:08.732Z,13.72
2019-01-30T06:08:10.393Z,13.40
2019-01-30T06:10:12.057Z,14.95
2019-01-30T06:12:13.725Z,14.30
2019-01-30T06:14:15.383Z,14.45
2019-01-30T06:16:17.056Z,13.75
2019-01-30T06:18:18.708Z,14.10
2019-01-30T06:20:22.560Z,14.70
2019-01-30T06:22:24.220Z,14.35
2019-01-30T06:24:25.875Z,14.28
2019-01-30T06:26:27.529Z,15.15
2019-01-30T06:28:29.478Z,14.30
2019-01-30T06:30:31.451Z,13.08
2019-01-30T06:32:33.105Z,17.02
2019-01-30T06:34:34.751Z,22.25
2019-01-30T06:36:36.420Z,16.73
2019-01-30T06:38:38.065Z,17.12
2019-01-30T06:40:39.979Z,16.85
2019-01-30T06:42:41.670Z,17.17
2019-01-30T06:44:43.317Z,15.58
2019-01-30T06:46:44.977Z,14.68
2019-01-30T06:48:46.633Z,16.85
2019-01-30T06:50:48.290Z,15.08
2019-01-30T06:52:49.932Z,13.80
2019-01-30T06:54:51.570Z,13.88
2019-01-30T06:56:53.501Z,15.68
2019-01-30T06:58:55.151Z,15.60
2019-01-30T07:00:56.796Z,15.53
2019-01-30T07:02:58.912Z,17.50
2019-01-30T07:05:00.829Z,15.98
2019-01-30T07:07:02.540Z,17.85
2019-01-30T07:09:08.145Z,15.80
2019-01-30T07:11:10.971Z,17.17
2019-01-30T07:13:12.969Z,15.43
2019-01-30T07:15:14.628Z,17.40
2019-01-30T07:17:16.385Z,17.48
2019-01-30T07:19:18.053Z,15.58
2019-01-30T07:21:19.705Z,26.35
2019-01-30T07:23:21.387Z,22.82
2019-01-30T07:25:23.025Z,17.52
2019-01-30T07:27:24.933Z,18.73
2019-01-30T07:29:26.597Z,16.65
2019-01-30T07:31:28.349Z,19.48
2019-01-30T07:33:30.107Z,20.00
2019-01-30T07:35:32.209Z,18.10
2019-01-30T07:37:33.865Z,18.90
2019-01-30T07:39:35.532Z,19.73
2019-01-30T07:41:37.181Z,17.52
2019-01-30T07:43:38.908Z,20.05
2019-01-30T07:45:40.557Z,19.67
2019-01-30T07:47:42.201Z,19.50
2019-01-30T07:49:43.856Z,20.10
2019-01-30T07:51:45.504Z,20.90
2019-01-30T07:53:47.162Z,19.70
2019-01-30T07:55:49.080Z,19.75
2019-01-30T07:57:51.028Z,18.00
2019-01-30T07:59:52.700Z,20.60
2019-01-30T08:01:54.349Z,18.87
2019-01-30T08:03:56.004Z,19.30
2019-01-30T08:05:57.660Z,17.48
2019-01-30T08:07:59.308Z,19.40
2019-01-30T08:10:00.977Z,20.45
2019-01-30T08:12:02.897Z,18.92
2019-01-30T08:14:04.573Z,17.98
2019-01-30T08:16:06.512Z,18.87
2019-01-30T08:18:08.174Z,18.95
2019-01-30T08:20:12.277Z,17.65
2019-01-30T08:22:13.922Z,18.07
2019-01-30T08:24:15.596Z,18.98
2019-01-30T08:26:17.604Z,18.70
2019-01-30T08:28:20.116Z,17.65
2019-01-30T08:30:24.257Z,19.10
2019-01-30T08:32:26.005Z,16.87
2019-01-30T08:34:27.876Z,17.50
2019-01-30T08:36:29.536Z,18.80
2019-01-30T08:38:31.188Z,17.32
2019-01-30T08:40:32.853Z,16.57
2019-01-30T08:42:34.836Z,17.73
2019-01-30T08:44:46.684Z,16.42
2019-01-30T08:46:40.318Z,16.95
2019-01-30T08:48:41.961Z,17.50
2019-01-30T08:50:43.625Z,16.90
2019-01-30T08:52:45.281Z,18.90
2019-01-30T08:54:46.952Z,17.25
2019-01-30T08:56:52.957Z,20.72
2019-01-30T08:58:52.140Z,20.48
2019-01-30T09:00:53.809Z,18.67
2019-01-30T09:02:55.466Z,17.07
2019-01-30T09:04:57.123Z,17.05
2019-01-30T09:06:59.085Z,18.07
2019-01-30T09:09:01.120Z,17.65
2019-01-30T09:11:02.808Z,16.73
2019-01-30T09:13:04.448Z,17.27
2019-01-30T09:15:08.469Z,16.55
2019-01-30T09:17:10.141Z,16.30
2019-01-30T09:19:11.793Z,15.20
2019-01-30T09:21:13.454Z,15.90
2019-01-30T09:23:15.110Z,16.02
2019-01-30T09:25:18.465Z,14.40
2019-01-30T09:27:20.113Z,15.50
2019-01-30T09:29:21.776Z,16.20
2019-01-30T09:31:23.696Z,15.58
2019-01-30T09:33:26.302Z,16.10
2019-01-30T09:35:28.252Z,14.55
2019-01-30T09:37:30.150Z,13.78
2019-01-30T09:39:31.937Z,14.73
2019-01-30T09:41:34.005Z,16.67
2019-01-30T09:43:35.655Z,15.60
2019-01-30T09:45:37.333Z,15.32
2019-01-30T09:47:39.287Z,14.50
2019-01-30T09:49:41.331Z,13.55
2019-01-30T09:51:43.286Z,14.20
2019-01-30T09:53:44.940Z,15.28
2019-01-30T09:55:46.626Z,14.90
2019-01-30T09:57:48.360Z,13.72
2019-01-30T09:59:50.074Z,13.80
2019-01-30T10:01:51.745Z,14.35
2019-01-30T10:03:53.400Z,14.30
2019-01-30T10:05:55.075Z,12.93
2019-01-30T10:07:57.003Z,13.70
2019-01-30T10:09:58.974Z,12.00
2019-01-30T10:12:00.635Z,13.10
2019-01-30T10:14:02.279Z,13.43
2019-01-30T10:16:03.977Z,14.93
2019-01-30T10:18:06.316Z,18.10
2019-01-30T10:20:11.856Z,13.87
2019-01-30T10:22:13.512Z,12.50
2019-01-30T10:24:15.445Z,12.70
2019-01-30T10:26:17.113Z,14.43
2019-01-30T10:28:19.056Z,14.07
2019-01-30T10:30:26.149Z,11.90
2019-01-30T10:32:27.812Z,12.77
2019-01-30T10:34:29.565Z,12.03
2019-01-30T10:36:31.233Z,12.13
2019-01-30T10:38:32.882Z,10.87
2019-01-30T10:40:34.533Z,11.80
2019-01-30T10:42:36.196Z,12.67
2019-01-30T10:44:37.856Z,11.30
2019-01-30T10:46:39.867Z,11.13
2019-01-30T10:48:41.518Z,10.47
2019-01-30T10:50:43.168Z,11.67
2019-01-30T10:52:44.841Z,10.30
2019-01-30T10:54:46.786Z,12.47
2019-01-30T10:56:48.441Z,13.50
2019-01-30T10:58:50.088Z,12.50
2019-01-30T11:00:51.840Z,12.47
2019-01-30T11:02:53.493Z,11.77
2019-01-30T11:04:55.149Z,11.27
2019-01-30T11:06:56.803Z,12.33
2019-01-30T11:08:58.448Z,11.60
2019-01-30T11:11:07.583Z,11.80
2019-01-30T11:13:04.324Z,11.10
2019-01-30T11:15:08.222Z,11.27
2019-01-30T11:17:10.170Z,11.07
2019-01-30T11:19:11.816Z,11.23
2019-01-30T11:21:13.469Z,12.53
2019-01-30T11:23:15.132Z,13.00
2019-01-30T11:25:19.348Z,11.27
2019-01-30T11:27:21.289Z,7.80
2019-01-30T11:29:23.249Z,10.47
2019-01-30T11:31:24.886Z,11.90
2019-01-30T11:33:26.541Z,9.33
2019-01-30T11:35:28.425Z,12.13
2019-01-30T11:37:30.085Z,11.50
2019-01-30T11:39:32.007Z,11.47
2019-01-30T11:41:33.669Z,12.00
2019-01-30T11:43:35.320Z,10.70
2019-01-30T11:45:38.935Z,13.33
2019-01-30T11:47:40.601Z,10.30
2019-01-30T11:49:42.240Z,10.93
2019-01-30T11:51:43.880Z,13.20
2019-01-30T11:53:45.545Z,12.30
2019-01-30T11:55:47.196Z,11.83
2019-01-30T11:57:48.856Z,10.90
2019-01-30T11:59:50.505Z,11.30
2019-01-30T12:01:52.156Z,11.27
2019-01-30T12:03:53.799Z,9.53
2019-01-30T12:05:55.457Z,12.10
2019-01-30T12:07:57.153Z,11.77
2019-01-30T12:09:58.811Z,12.73
2019-01-30T12:12:00.455Z,15.20
2019-01-30T12:14:02.181Z,11.33
2019-01-30T12:16:04.203Z,12.90
2019-01-30T12:18:05.913Z,11.57
2019-01-30T12:20:08.136Z,12.10
2019-01-30T12:22:09.782Z,11.43
2019-01-30T12:24:11.726Z,11.93
2019-01-30T12:26:13.688Z,12.50
2019-01-30T12:28:15.344Z,12.17
2019-01-30T12:30:18.960Z,12.63
2019-01-30T12:32:20.612Z,12.43
2019-01-30T12:34:28.317Z,11.40
2019-01-30T12:36:26.096Z,12.10
2019-01-30T12:38:27.753Z,12.60
2019-01-30T12:40:29.400Z,12.80
2019-01-30T12:42:31.056Z,11.50
2019-01-30T12:44:33.625Z,13.70
2019-01-30T12:46:35.389Z,9.67
2019-01-30T12:48:37.061Z,12.83
2019-01-30T12:50:39.035Z,12.80
2019-01-30T12:52:40.685Z,12.90
2019-01-30T12:54:42.353Z,12.58
2019-01-30T12:56:44.300Z,13.30
2019-01-30T12:58:45.961Z,13.68
2019-01-30T13:00:47.730Z,11.15
2019-01-30T13:02:49.377Z,11.43
2019-01-30T13:04:51.319Z,11.88
2019-01-30T13:06:52.973Z,12.67
2019-01-30T13:08:54.823Z,12.98
2019-01-30T13:10:56.507Z,10.95
2019-01-30T13:12:58.165Z,13.43
2019-01-30T13:14:59.840Z,12.40
2019-01-30T13:17:01.492Z,11.50
2019-01-30T13:19:03.152Z,13.43
2019-01-30T13:21:04.829Z,13.60
2019-01-30T13:23:06.489Z,12.05
2019-01-30T13:25:08.268Z,13.48
2019-01-30T13:27:09.933Z,13.80
2019-01-30T13:29:11.591Z,19.70
2019-01-30T13:31:13.256Z,14.95
2019-01-30T13:33:15.012Z,12.15
2019-01-30T13:35:16.672Z,13.80
2019-01-30T13:37:18.333Z,11.85
2019-01-30T13:39:19.992Z,12.43
2019-01-30T13:41:21.974Z,11.95
2019-01-30T13:43:23.630Z,13.10
2019-01-30T13:45:26.121Z,12.90
2019-01-30T13:47:27.781Z,12.73
2019-01-30T13:49:29.443Z,12.90
2019-01-30T13:51:31.108Z,12.77
2019-01-30T13:53:33.005Z,11.45
2019-01-30T13:55:34.786Z,12.70
2019-01-30T13:57:36.445Z,12.95
2019-01-30T13:59:38.138Z,12.50
2019-01-30T14:01:39.925Z,12.58
2019-01-30T14:03:41.620Z,13.88
2019-01-30T14:05:43.633Z,12.50
2019-01-30T14:07:45.296Z,13.25
2019-01-30T14:09:47.341Z,13.08
2019-01-30T14:11:49.011Z,12.33
2019-01-30T14:13:50.661Z,12.50
2019-01-30T14:15:52.344Z,12.25
2019-01-30T14:17:54.233Z,11.75
2019-01-30T14:19:55.893Z,11.68
2019-01-30T14:21:57.565Z,13.50
2019-01-30T14:23:59.238Z,16.57
2019-01-30T14:26:00.982Z,13.38
2019-01-30T14:28:02.637Z,12.85
2019-01-30T14:30:08.100Z,12.98
2019-01-30T14:32:09.848Z,13.08
2019-01-30T14:34:11.527Z,13.62
2019-01-30T14:36:13.562Z,13.45
2019-01-30T14:38:15.364Z,12.30
2019-01-30T14:40:17.590Z,11.35
2019-01-30T14:42:19.641Z,13.48
2019-01-30T14:44:21.411Z,12.47
2019-01-30T14:46:23.422Z,12.85
2019-01-30T14:48:25.079Z,13.05
2019-01-30T14:50:27.055Z,13.85
2019-01-30T14:52:28.804Z,12.63
2019-01-30T14:54:30.756Z,13.50
2019-01-30T14:56:32.709Z,12.50
2019-01-30T14:58:34.356Z,11.50
2019-01-30T15:00:36.448Z,12.40
2019-01-30T15:02:38.142Z,12.33
2019-01-30T15:04:39.794Z,13.68
2019-01-30T15:06:41.480Z,11.43
2019-01-30T15:08:43.261Z,12.03
2019-01-30T15:10:44.990Z,12.88
2019-01-30T15:12:46.653Z,12.40
2019-01-30T15:14:48.317Z,11.40
2019-01-30T15:16:49.988Z,11.78
2019-01-30T15:18:51.742Z,11.85
2019-01-30T15:20:53.415Z,12.13
2019-01-30T15:22:55.837Z,11.85
2019-01-30T15:24:57.496Z,13.10
2019-01-30T15:26:59.167Z,11.15
2019-01-30T15:29:00.825Z,13.08
2019-01-30T15:31:02.476Z,11.18
2019-01-30T15:33:04.507Z,11.57
2019-01-30T15:35:06.280Z,12.78
2019-01-30T15:37:07.933Z,10.78
2019-01-30T15:39:09.601Z,12.50
2019-01-30T15:41:11.261Z,12.03
2019-01-30T15:43:12.932Z,12.78
2019-01-30T15:45:16.051Z,13.98
2019-01-30T15:47:17.706Z,12.25
2019-01-30T15:49:19.370Z,11.38
2019-01-30T15:51:21.290Z,12.53
2019-01-30T15:53:24.681Z,22.52
2019-01-30T15:55:26.365Z,13.58
2019-01-30T15:57:28.033Z,11.93
2019-01-30T15:59:29.684Z,13.03
2019-01-30T16:01:38.169Z,12.93
2019-01-30T16:03:39.827Z,14.78
2019-01-30T16:05:45.052Z,12.98
2019-01-30T16:07:45.061Z,16.45
2019-01-30T16:09:46.725Z,17.57
2019-01-30T16:11:50.439Z,12.07
2019-01-30T16:13:51.954Z,15.50
2019-01-30T16:15:56.280Z,12.65
2019-01-30T16:17:57.942Z,13.00
2019-01-30T16:19:59.599Z,14.90
2019-01-30T16:22:01.260Z,13.00
2019-01-30T16:24:03.507Z,13.10
2019-01-30T16:26:05.164Z,12.65
2019-01-30T16:28:06.828Z,13.25
2019-01-30T16:30:12.448Z,13.22
2019-01-30T16:32:14.856Z,13.55
2019-01-30T16:34:16.529Z,13.03
2019-01-30T16:36:18.227Z,14.10
2019-01-30T16:38:19.913Z,12.40
2019-01-30T16:40:21.764Z,12.65
2019-01-30T16:42:23.421Z,12.58
2019-01-30T16:44:25.433Z,11.10
2019-01-30T16:46:27.089Z,13.53
2019-01-30T16:48:30.912Z,10.95
2019-01-30T16:50:34.337Z,13.43
2019-01-30T16:52:35.873Z,11.53
2019-01-30T16:54:37.886Z,12.03
2019-01-30T16:56:39.546Z,12.25
2019-01-30T16:58:41.203Z,12.93
2019-01-30T17:00:42.865Z,13.05
2019-01-30T17:02:44.508Z,11.65
2019-01-30T17:04:46.186Z,13.28
2019-01-30T17:06:47.828Z,12.15
2019-01-30T17:08:49.489Z,12.63
2019-01-30T17:10:51.152Z,12.70
2019-01-30T17:12:52.810Z,12.70
2019-01-30T17:14:54.473Z,12.18
2019-01-30T17:16:56.465Z,11.53
2019-01-30T17:18:58.145Z,12.05
2019-01-30T17:20:59.804Z,13.00
2019-01-30T17:23:01.826Z,12.05
2019-01-30T17:25:05.039Z,12.50
2019-01-30T17:27:06.692Z,11.85
2019-01-30T17:29:08.381Z,12.20
2019-01-30T17:31:13.779Z,12.55
2019-01-30T17:33:16.235Z,10.55
2019-01-30T17:35:17.900Z,13.88
2019-01-30T17:37:19.561Z,13.20
2019-01-30T17:39:21.489Z,12.95
2019-01-30T17:41:23.153Z,12.95
2019-01-30T17:43:24.822Z,14.35
2019-01-30T17:45:26.500Z,14.30
2019-01-30T17:47:28.605Z,14.35
2019-01-30T17:49:30.352Z,12.55
2019-01-30T17:51:32.012Z,14.23
2019-01-30T17:53:33.689Z,12.73
2019-01-30T17:55:35.365Z,11.78
2019-01-30T17:57:37.122Z,12.60
2019-01-30T17:59:38.784Z,11.95
2019-01-30T18:01:42.833Z,12.43
2019-01-30T18:03:44.597Z,11.53
2019-01-30T18:05:46.304Z,11.83
2019-01-30T18:07:47.965Z,12.80
2019-01-30T18:09:49.628Z,12.68
2019-01-30T18:11:51.293Z,13.38
2019-01-30T18:13:53.254Z,12.63
2019-01-30T18:15:54.929Z,13.55
2019-01-30T18:17:56.582Z,10.78
2019-01-30T18:19:58.336Z,13.72
2019-01-30T18:21:59.988Z,12.78
2019-01-30T18:24:01.652Z,14.15
2019-01-30T18:26:03.331Z,13.15
2019-01-30T18:28:05.099Z,12.90
2019-01-30T18:30:09.467Z,12.15
2019-01-30T18:32:11.125Z,11.95
2019-01-30T18:34:12.787Z,13.22
2019-01-30T18:36:14.470Z,14.10
2019-01-30T18:38:16.125Z,12.85
2019-01-30T18:40:19.252Z,13.83
2019-01-30T18:42:20.900Z,14.10
2019-01-30T18:44:22.556Z,13.75
2019-01-30T18:46:24.221Z,14.38
2019-01-30T18:48:26.145Z,14.45
2019-01-30T18:50:27.831Z,14.00
2019-01-30T18:52:29.777Z,13.85
2019-01-30T18:54:31.469Z,12.78
2019-01-30T18:56:33.132Z,13.93
2019-01-30T18:58:34.788Z,13.22
2019-01-30T19:00:41.410Z,14.13
2019-01-30T19:02:43.051Z,13.90
2019-01-30T19:04:44.699Z,12.70
2019-01-30T19:06:52.489Z,13.48
2019-01-30T19:08:49.929Z,14.40
2019-01-30T19:10:51.604Z,13.30
2019-01-30T19:12:53.306Z,13.62
2019-01-30T19:14:54.962Z,12.35
2019-01-30T19:16:56.621Z,13.80
2019-01-30T19:18:58.255Z,14.15
2019-01-30T19:20:59.921Z,14.20
2019-01-30T19:23:01.583Z,15.38
2019-01-30T19:25:03.776Z,16.50
2019-01-30T19:27:05.437Z,15.40
2019-01-30T19:29:07.121Z,15.98
2019-01-30T19:31:08.781Z,16.55
2019-01-30T19:33:10.547Z,15.30
2019-01-30T19:35:12.495Z,12.80
2019-01-30T19:37:14.169Z,14.78
2019-01-30T19:39:15.825Z,15.63
2019-01-30T19:41:17.776Z,15.30
2019-01-30T19:43:19.737Z,15.60
2019-01-30T19:45:23.145Z,16.17
2019-01-30T19:47:24.799Z,14.90
2019-01-30T19:49:26.754Z,15.83
2019-01-30T19:51:28.707Z,15.60
2019-01-30T19:53:30.369Z,15.00
2019-01-30T19:55:32.037Z,14.90
2019-01-30T19:57:33.692Z,15.53
2019-01-30T19:59:35.353Z,15.25
2019-01-30T20:01:37.037Z,15.00
2019-01-30T20:03:38.997Z,16.05
2019-01-30T20:05:40.673Z,16.80
2019-01-30T20:07:42.324Z,16.15
2019-01-30T20:09:44.977Z,17.62
2019-01-30T20:11:46.839Z,17.90
2019-01-30T20:13:48.501Z,18.45
2019-01-30T20:15:50.173Z,16.50
2019-01-30T20:17:51.842Z,15.58
2019-01-30T20:19:53.598Z,16.00
2019-01-30T20:21:55.578Z,13.22
2019-01-30T20:23:57.525Z,15.18
2019-01-30T20:25:59.192Z,13.60
2019-01-30T20:28:00.848Z,14.65
2019-01-30T20:30:03.491Z,15.30
2019-01-30T20:32:05.186Z,14.05
2019-01-30T20:34:10.337Z,14.70
2019-01-30T20:36:10.400Z,13.40
2019-01-30T20:38:12.052Z,13.50
2019-01-30T20:40:21.585Z,13.72
2019-01-30T20:42:23.257Z,12.93
2019-01-30T20:44:24.914Z,14.23
2019-01-30T20:46:26.596Z,14.63
2019-01-30T20:48:28.501Z,13.98
2019-01-30T20:50:30.173Z,13.18
2019-01-30T20:52:31.867Z,14.87
2019-01-30T20:54:33.507Z,15.05
2019-01-30T20:56:35.173Z,14.55
2019-01-30T20:58:36.833Z,13.20
2019-01-30T21:00:38.488Z,13.78
2019-01-30T21:02:40.152Z,13.88
2019-01-30T21:04:41.804Z,13.90
2019-01-30T21:06:43.462Z,13.70
2019-01-30T21:08:45.129Z,13.38
2019-01-30T21:10:46.790Z,16.15
2019-01-30T21:12:48.460Z,14.58
2019-01-30T21:14:50.869Z,14.85
2019-01-30T21:16:52.552Z,16.10
2019-01-30T21:18:54.213Z,16.05
2019-01-30T21:20:55.873Z,14.20
2019-01-30T21:22:57.587Z,16.07
2019-01-30T21:24:59.232Z,15.93
2019-01-30T21:27:01.179Z,17.15
2019-01-30T21:29:02.827Z,14.93
2019-01-30T21:31:04.480Z,16.12
2019-01-30T21:33:06.169Z,15.68
2019-01-30T21:35:07.825Z,16.87
2019-01-30T21:37:09.494Z,15.50
2019-01-30T21:39:11.448Z,15.63
2019-01-30T21:41:13.142Z,15.98
2019-01-30T21:43:15.006Z,16.37
2019-01-30T21:45:18.221Z,14.83
2019-01-30T21:47:19.911Z,16.20
2019-01-30T21:49:21.641Z,15.80
2019-01-30T21:51:23.288Z,14.87
2019-01-30T21:53:24.962Z,16.62
2019-01-30T21:55:26.612Z,15.70
2019-01-30T21:57:28.297Z,15.35
2019-01-30T21:59:30.278Z,14.13
2019-01-30T22:01:31.934Z,17.12
2019-01-30T22:03:33.647Z,16.97
2019-01-30T22:05:35.369Z,16.90
2019-01-30T22:07:37.065Z,16.27
2019-01-30T22:09:38.729Z,17.00
2019-01-30T22:11:40.377Z,16.23
2019-01-30T22:13:42.041Z,17.90
2019-01-30T22:15:43.695Z,17.82
2019-01-30T22:17:45.365Z,16.40
2019-01-30T22:19:47.020Z,16.07
2019-01-30T22:21:48.788Z,18.02
2019-01-30T22:23:50.769Z,17.17
2019-01-30T22:25:52.429Z,17.35
2019-01-30T22:27:54.080Z,19.32
2019-01-30T22:29:55.759Z,19.20
2019-01-30T22:31:57.396Z,19.30
2019-01-30T22:33:59.069Z,15.70
2019-01-30T22:36:01.020Z,18.25
2019-01-30T22:38:12.080Z,18.02
2019-01-30T22:40:07.819Z,16.07
2019-01-30T22:42:09.767Z,15.25
2019-01-30T22:44:11.437Z,17.52
2019-01-30T22:46:13.096Z,20.20
2019-01-30T22:48:14.764Z,17.07
2019-01-30T22:50:16.642Z,18.07
2019-01-30T22:52:18.535Z,19.02
2019-01-30T22:54:20.209Z,20.20
2019-01-30T22:56:21.881Z,19.07
2019-01-30T22:58:23.541Z,19.60
2019-01-30T23:00:59.545Z,20.05
2019-01-30T23:03:01.233Z,20.10
2019-01-30T23:05:18.146Z,17.62
2019-01-30T23:07:51.827Z,17.48
2019-01-30T23:10:32.376Z,17.80
2019-01-30T23:12:51.341Z,17.67
2019-01-30T23:14:59.057Z,18.73
2019-01-30T23:17:28.973Z,16.05
2019-01-30T23:19:53.535Z,15.48
2019-01-30T23:22:09.753Z,16.93
2019-01-30T23:24:24.916Z,17.60
2019-01-30T23:26:34.751Z,15.05
2019-01-30T23:29:11.081Z,13.22
2019-01-30T23:31:32.334Z,17.42
2019-01-30T23:33:58.343Z,16.73
2019-01-30T23:36:50.677Z,15.28
2019-01-30T23:39:34.753Z,15.20
2019-01-30T23:42:00.661Z,16.50
2019-01-30T23:44:45.486Z,18.17
2019-01-30T23:47:04.181Z,17.40
2019-01-30T23:49:53.301Z,13.58
2019-01-30T23:52:32.778Z,16.70
2019-01-30T23:54:45.389Z,12.33
2019-01-30T23:56:57.589Z,18.85
2019-01-30T23:59:37.339Z,17.80
